createdAt,value
2023-03-14T00:00:24.176Z,4.30
2023-03-14T00:02:56.861Z,6.10
2023-03-14T00:05:10.025Z,5.40
2023-03-14T00:07:25.349Z,5.20
2023-03-14T00:09:37.966Z,5.70
2023-03-14T00:11:50.501Z,5.80
2023-03-14T00:14:03.952Z,7.90
2023-03-14T00:16:16.923Z,12.00
2023-03-14T00:18:29.565Z,7.30
2023-03-14T00:20:42.111Z,6.50
2023-03-14T00:22:54.708Z,5.50
2023-03-14T00:25:09.222Z,8.40
2023-03-14T00:27:21.759Z,4.50
2023-03-14T00:29:34.330Z,7.80
2023-03-14T00:31:46.940Z,6.40
2023-03-14T00:33:59.516Z,5.80
2023-03-14T00:36:16.837Z,8.10
2023-03-14T00:38:30.637Z,8.10
2023-03-14T00:40:43.144Z,6.20
2023-03-14T00:42:55.809Z,10.40
2023-03-14T00:45:09.868Z,9.00
2023-03-14T00:47:22.425Z,7.70
2023-03-14T00:49:35.220Z,9.10
2023-03-14T00:51:47.756Z,4.50
2023-03-14T00:54:01.025Z,4.50
2023-03-14T00:56:13.986Z,4.00
2023-03-14T00:58:26.508Z,5.00
2023-03-14T01:00:40.166Z,5.50
2023-03-14T01:02:52.773Z,4.40
2023-03-14T01:05:05.631Z,6.40
2023-03-14T01:07:18.242Z,7.60
2023-03-14T01:09:30.845Z,6.00
2023-03-14T01:11:47.295Z,4.30
2023-03-14T01:14:00.164Z,19.50
2023-03-14T01:16:14.466Z,12.20
2023-03-14T01:18:27.092Z,7.70
2023-03-14T01:20:39.685Z,12.90
2023-03-14T01:22:52.341Z,13.20
2023-03-14T01:25:05.718Z,15.90
2023-03-14T01:27:18.300Z,16.00
2023-03-14T01:29:31.375Z,8.40
2023-03-14T01:31:43.962Z,22.30
2023-03-14T01:33:56.635Z,6.90
2023-03-14T01:36:10.414Z,4.50
2023-03-14T01:38:23.073Z,16.50
2023-03-14T01:40:43.083Z,16.80
2023-03-14T01:42:58.351Z,16.70
2023-03-14T01:45:48.736Z,39.00
2023-03-14T01:48:01.338Z,7.00
2023-03-14T01:50:13.881Z,6.50
2023-03-14T01:52:36.089Z,7.20
2023-03-14T01:54:56.604Z,3.80
2023-03-14T01:57:16.881Z,4.60
2023-03-14T01:59:32.623Z,5.50
2023-03-14T02:01:47.499Z,4.30
2023-03-14T02:04:03.583Z,4.30
2023-03-14T02:06:20.431Z,4.80
2023-03-14T02:08:34.366Z,6.40
2023-03-14T02:10:49.782Z,8.10
2023-03-14T02:13:04.587Z,7.40
2023-03-14T02:15:17.344Z,5.90
2023-03-14T02:17:30.089Z,5.40
2023-03-14T02:20:10.077Z,6.40
2023-03-14T02:22:22.987Z,6.60
2023-03-14T02:24:45.905Z,5.50
2023-03-14T02:27:07.745Z,5.50
2023-03-14T02:29:20.426Z,7.30
2023-03-14T02:31:34.279Z,4.30
2023-03-14T02:33:46.890Z,6.00
2023-03-14T02:36:02.484Z,5.20
2023-03-14T02:38:36.840Z,7.10
2023-03-14T02:40:49.557Z,4.40
2023-03-14T02:43:02.174Z,5.10
2023-03-14T02:45:14.825Z,4.70
2023-03-14T02:47:30.859Z,4.70
2023-03-14T02:49:43.705Z,5.40
2023-03-14T02:51:56.335Z,3.90
2023-03-14T02:54:09.049Z,4.20
2023-03-14T02:56:21.827Z,5.10
2023-03-14T02:58:34.675Z,4.80
2023-03-14T03:00:47.726Z,5.10
2023-03-14T03:03:00.681Z,5.20
2023-03-14T03:05:13.309Z,4.70
2023-03-14T03:07:26.129Z,4.40
2023-03-14T03:09:38.716Z,4.90
2023-03-14T03:11:51.445Z,4.60
2023-03-14T03:14:04.064Z,4.20
2023-03-14T03:16:16.917Z,7.80
2023-03-14T03:18:29.558Z,4.60
2023-03-14T03:20:42.207Z,3.60
2023-03-14T03:22:55.010Z,5.70
2023-03-14T03:25:09.107Z,5.40
2023-03-14T03:27:21.717Z,6.30
2023-03-14T03:29:34.341Z,5.70
2023-03-14T03:31:46.946Z,4.00
2023-03-14T03:33:59.497Z,5.00
2023-03-14T03:36:12.939Z,8.20
2023-03-14T03:38:25.566Z,4.60
2023-03-14T03:40:38.185Z,4.40
2023-03-14T03:42:50.876Z,4.60
2023-03-14T03:45:04.454Z,5.00
2023-03-14T03:47:16.988Z,4.30
2023-03-14T03:49:31.320Z,5.10
2023-03-14T03:51:43.851Z,4.30
2023-03-14T03:53:57.346Z,5.30
2023-03-14T03:56:10.362Z,4.10
2023-03-14T03:58:22.903Z,4.90
2023-03-14T04:00:35.589Z,4.50
2023-03-14T04:02:48.237Z,5.70
2023-03-14T04:05:01.456Z,6.60
2023-03-14T04:07:15.006Z,4.40
2023-03-14T04:09:27.537Z,6.20
2023-03-14T04:11:40.211Z,3.50
2023-03-14T04:13:53.050Z,5.40
2023-03-14T04:16:15.157Z,5.30
2023-03-14T04:18:28.204Z,3.90
2023-03-14T04:20:40.782Z,4.90
2023-03-14T04:22:53.353Z,4.30
2023-03-14T04:25:07.477Z,4.90
2023-03-14T04:27:20.195Z,5.40
2023-03-14T04:29:32.809Z,4.10
2023-03-14T04:31:45.463Z,6.40
2023-03-14T04:33:58.178Z,4.90
2023-03-14T04:36:10.844Z,3.60
2023-03-14T04:38:23.428Z,4.30
2023-03-14T04:40:38.550Z,5.00
2023-03-14T04:42:51.173Z,5.00
2023-03-14T04:45:04.249Z,5.60
2023-03-14T04:47:16.825Z,5.30
2023-03-14T04:49:29.456Z,5.90
2023-03-14T04:51:42.095Z,4.80
2023-03-14T04:53:55.537Z,4.40
2023-03-14T04:56:08.571Z,4.10
2023-03-14T04:58:22.108Z,5.70
2023-03-14T05:00:34.908Z,5.50
2023-03-14T05:02:47.544Z,6.50
2023-03-14T05:05:00.232Z,5.50
2023-03-14T05:07:13.968Z,7.80
2023-03-14T05:09:27.679Z,5.90
2023-03-14T05:11:40.274Z,5.80
2023-03-14T05:13:52.844Z,5.30
2023-03-14T05:16:08.397Z,8.10
2023-03-14T05:18:21.012Z,6.60
2023-03-14T05:20:33.604Z,6.10
2023-03-14T05:22:46.267Z,5.00
2023-03-14T05:25:00.037Z,5.10
2023-03-14T05:27:12.796Z,4.20
2023-03-14T05:29:25.826Z,4.50
2023-03-14T05:31:38.544Z,6.10
2023-03-14T05:33:51.318Z,4.80
2023-03-14T05:36:04.253Z,5.70
2023-03-14T05:38:16.886Z,4.50
2023-03-14T05:40:29.562Z,4.60
2023-03-14T05:42:42.175Z,5.40
2023-03-14T05:44:54.927Z,6.20
2023-03-14T05:47:07.617Z,5.90
2023-03-14T05:49:20.264Z,6.10
2023-03-14T05:51:32.829Z,6.10
2023-03-14T05:53:45.487Z,16.60
2023-03-14T05:55:58.432Z,8.60
2023-03-14T05:58:11.111Z,8.00
2023-03-14T06:00:24.241Z,8.10
2023-03-14T06:02:36.858Z,9.40
2023-03-14T06:04:49.523Z,15.20
2023-03-14T06:07:02.119Z,14.80
2023-03-14T06:09:14.694Z,21.90
2023-03-14T06:11:27.260Z,29.70
2023-03-14T06:13:39.830Z,7.90
2023-03-14T06:15:52.426Z,9.70
2023-03-14T06:18:05.036Z,8.30
2023-03-14T06:20:17.801Z,33.40
2023-03-14T06:22:30.416Z,12.50
2023-03-14T06:24:43.192Z,9.60
2023-03-14T06:26:55.772Z,11.00
2023-03-14T06:29:08.495Z,10.70
2023-03-14T06:31:21.147Z,8.50
2023-03-14T06:33:33.781Z,7.90
2023-03-14T06:35:46.355Z,7.20
2023-03-14T06:37:58.894Z,14.40
2023-03-14T06:40:17.730Z,14.00
2023-03-14T06:42:30.328Z,20.30
2023-03-14T06:44:42.896Z,24.10
2023-03-14T06:46:55.458Z,18.30
2023-03-14T06:49:08.128Z,10.00
2023-03-14T06:51:20.781Z,13.40
2023-03-14T06:53:33.574Z,20.30
2023-03-14T06:55:46.688Z,19.30
2023-03-14T06:57:59.363Z,10.40
2023-03-14T07:00:13.741Z,11.00
2023-03-14T07:02:39.747Z,11.30
2023-03-14T07:04:54.767Z,8.90
2023-03-14T07:07:07.735Z,6.40
2023-03-14T07:09:20.541Z,9.00
2023-03-14T07:11:33.062Z,5.90
2023-03-14T07:13:45.648Z,5.40
2023-03-14T07:15:58.223Z,6.70
2023-03-14T07:18:10.787Z,5.50
2023-03-14T07:20:24.317Z,7.70
2023-03-14T07:22:36.870Z,22.70
2023-03-14T07:24:49.395Z,11.80
2023-03-14T07:27:01.950Z,19.10
2023-03-14T07:29:14.439Z,23.90
2023-03-14T07:31:27.048Z,12.50
2023-03-14T07:33:39.721Z,20.00
2023-03-14T07:35:52.358Z,13.30
2023-03-14T07:38:05.374Z,13.20
2023-03-14T07:40:18.101Z,10.40
2023-03-14T07:42:30.990Z,18.40
2023-03-14T07:44:43.557Z,9.20
2023-03-14T07:46:56.462Z,13.90
2023-03-14T07:49:09.049Z,10.60
2023-03-14T07:51:21.578Z,7.60
2023-03-14T07:53:34.204Z,8.50
2023-03-14T07:55:46.969Z,7.60
2023-03-14T07:57:59.600Z,5.80
2023-03-14T08:00:14.787Z,8.60
2023-03-14T08:02:28.382Z,11.90
2023-03-14T08:04:41.194Z,6.60
2023-03-14T08:06:55.291Z,15.00
2023-03-14T08:09:07.918Z,7.20
2023-03-14T08:11:20.477Z,11.10
2023-03-14T08:13:33.473Z,9.00
2023-03-14T08:15:49.892Z,8.00
2023-03-14T08:18:02.473Z,12.50
2023-03-14T08:20:15.350Z,12.70
2023-03-14T08:22:27.883Z,11.40
2023-03-14T08:24:40.462Z,6.20
2023-03-14T08:26:52.941Z,6.80
2023-03-14T08:29:05.697Z,13.90
2023-03-14T08:31:18.588Z,6.90
2023-03-14T08:33:31.481Z,6.50
2023-03-14T08:35:44.152Z,9.30
2023-03-14T08:37:56.779Z,12.20
2023-03-14T08:40:11.308Z,11.00
2023-03-14T08:42:23.933Z,8.20
2023-03-14T08:44:36.473Z,5.50
2023-03-14T08:46:49.188Z,11.70
2023-03-14T08:49:01.898Z,5.50
2023-03-14T08:51:15.576Z,11.30
2023-03-14T08:53:28.094Z,12.20
2023-03-14T08:55:40.630Z,9.50
2023-03-14T08:57:53.276Z,15.20
2023-03-14T09:00:11.410Z,9.50
2023-03-14T09:02:25.208Z,7.00
2023-03-14T09:04:37.882Z,8.30
2023-03-14T09:06:50.455Z,12.10
2023-03-14T09:09:03.537Z,9.00
2023-03-14T09:11:16.409Z,4.90
2023-03-14T09:13:28.967Z,9.40
2023-03-14T09:15:43.280Z,6.80
2023-03-14T09:17:55.985Z,7.90
2023-03-14T09:20:09.899Z,10.80
2023-03-14T09:22:22.615Z,16.20
2023-03-14T09:24:35.158Z,12.90
2023-03-14T09:26:47.900Z,10.30
2023-03-14T09:29:00.452Z,6.80
2023-03-14T09:31:14.538Z,19.40
2023-03-14T09:33:27.407Z,13.00
2023-03-14T09:35:39.966Z,13.90
2023-03-14T09:37:52.645Z,8.00
2023-03-14T09:40:11.308Z,5.20
2023-03-14T09:42:27.521Z,9.00
2023-03-14T09:44:47.376Z,10.60
2023-03-14T09:47:05.199Z,6.70
2023-03-14T09:49:23.008Z,5.20
2023-03-14T09:51:35.606Z,7.40
2023-03-14T09:53:49.901Z,4.80
2023-03-14T09:56:02.545Z,6.30
2023-03-14T09:58:21.796Z,6.10
2023-03-14T10:00:34.387Z,7.40
2023-03-14T10:02:56.610Z,11.90
2023-03-14T10:05:16.834Z,9.80
2023-03-14T10:07:32.964Z,6.80
2023-03-14T10:09:48.956Z,6.10
2023-03-14T10:12:02.402Z,9.90
2023-03-14T10:14:33.684Z,20.90
2023-03-14T10:16:47.073Z,16.80
2023-03-14T10:19:08.643Z,18.70
2023-03-14T10:21:29.695Z,15.70
2023-03-14T10:23:42.255Z,23.30
2023-03-14T10:26:13.047Z,10.20
2023-03-14T10:28:31.857Z,7.70
2023-03-14T10:30:46.575Z,6.80
2023-03-14T10:33:09.317Z,6.80
2023-03-14T10:35:23.884Z,5.30
2023-03-14T10:37:36.925Z,5.80
2023-03-14T10:39:56.334Z,6.90
2023-03-14T10:42:25.192Z,6.90
2023-03-14T10:44:39.699Z,6.20
2023-03-14T10:47:01.761Z,8.80
2023-03-14T10:49:29.601Z,6.60
2023-03-14T10:51:42.124Z,6.70
2023-03-14T10:54:04.370Z,4.90
2023-03-14T10:56:22.569Z,6.10
2023-03-14T10:58:41.135Z,5.90
2023-03-14T11:01:13.310Z,5.10
2023-03-14T11:03:29.230Z,4.40
2023-03-14T11:06:05.163Z,4.60
2023-03-14T11:08:56.123Z,4.40
2023-03-14T11:11:17.510Z,5.00
2023-03-14T11:13:29.969Z,5.80
2023-03-14T11:16:07.480Z,5.80
2023-03-14T11:18:41.032Z,7.60
2023-03-14T11:21:29.751Z,4.30
2023-03-14T11:23:57.544Z,5.10
2023-03-14T11:26:41.217Z,5.00
2023-03-14T11:29:12.751Z,4.30
2023-03-14T11:31:30.783Z,6.40
2023-03-14T11:34:06.338Z,8.30
2023-03-14T11:36:26.666Z,9.80
2023-03-14T11:38:56.142Z,6.40
2023-03-14T11:41:17.601Z,7.30
2023-03-14T11:43:35.996Z,5.20
2023-03-14T11:45:50.984Z,3.90
2023-03-14T11:48:22.000Z,4.60
2023-03-14T11:50:36.074Z,3.40
2023-03-14T11:52:55.940Z,3.60
2023-03-14T11:55:18.967Z,3.80
2023-03-14T11:57:31.610Z,5.20
2023-03-14T12:00:15.123Z,5.30
2023-03-14T12:02:30.745Z,3.10
2023-03-14T12:04:49.194Z,4.50
2023-03-14T12:07:15.944Z,4.40
2023-03-14T12:09:30.587Z,5.70
2023-03-14T12:11:53.689Z,3.90
2023-03-14T12:14:21.333Z,5.00
2023-03-14T12:16:40.781Z,3.80
2023-03-14T12:18:54.814Z,4.30
2023-03-14T12:21:10.759Z,3.50
2023-03-14T12:23:25.565Z,4.70
2023-03-14T12:25:38.311Z,3.90
2023-03-14T12:27:56.950Z,4.80
2023-03-14T12:30:40.646Z,4.70
2023-03-14T12:33:11.468Z,4.70
2023-03-14T12:35:40.936Z,3.70
2023-03-14T12:37:56.836Z,4.90
2023-03-14T12:40:10.462Z,4.90
2023-03-14T12:42:52.718Z,6.40
2023-03-14T12:45:25.845Z,6.60
2023-03-14T12:47:38.399Z,5.70
2023-03-14T12:49:54.219Z,5.50
2023-03-14T12:52:15.601Z,7.70
2023-03-14T12:54:46.936Z,6.40
2023-03-14T12:57:16.725Z,6.70
2023-03-14T12:59:33.605Z,6.70
2023-03-14T13:01:54.466Z,5.60
2023-03-14T13:04:12.639Z,8.30
2023-03-14T13:06:48.848Z,8.20
2023-03-14T13:09:27.127Z,8.00
2023-03-14T13:11:42.119Z,7.60
2023-03-14T13:13:59.594Z,7.50
2023-03-14T13:16:17.444Z,7.30
2023-03-14T13:18:52.550Z,7.80
2023-03-14T13:21:20.960Z,6.70
2023-03-14T13:23:37.671Z,8.50
2023-03-14T13:25:50.420Z,6.30
2023-03-14T13:28:04.059Z,6.00
2023-03-14T13:30:24.649Z,9.30
2023-03-14T13:32:43.408Z,9.80
2023-03-14T13:34:59.517Z,9.40
2023-03-14T13:37:23.001Z,6.90
2023-03-14T13:39:35.672Z,7.30
2023-03-14T13:41:49.412Z,4.90
2023-03-14T13:44:07.802Z,5.00
2023-03-14T13:46:24.303Z,4.60
2023-03-14T13:48:44.921Z,5.50
2023-03-14T13:51:07.139Z,5.00
2023-03-14T13:53:20.777Z,5.50
2023-03-14T13:55:34.430Z,5.90
2023-03-14T13:57:56.721Z,4.90
2023-03-14T14:00:24.816Z,4.90
2023-03-14T14:02:39.022Z,4.30
2023-03-14T14:04:52.335Z,4.80
2023-03-14T14:07:11.069Z,5.90
2023-03-14T14:09:32.631Z,4.10
2023-03-14T14:12:15.385Z,6.70
2023-03-14T14:14:41.520Z,6.60
2023-03-14T14:16:54.782Z,9.30
2023-03-14T14:19:08.918Z,7.50
2023-03-14T14:21:22.152Z,7.50
2023-03-14T14:23:37.002Z,6.20
2023-03-14T14:25:50.212Z,5.90
2023-03-14T14:28:35.621Z,6.30
2023-03-14T14:31:06.039Z,5.60
2023-03-14T14:33:21.588Z,6.10
2023-03-14T14:35:36.318Z,6.40
2023-03-14T14:37:49.422Z,9.00
2023-03-14T14:40:17.052Z,7.00
2023-03-14T14:42:32.047Z,6.40
2023-03-14T14:44:46.416Z,5.80
2023-03-14T14:47:00.250Z,6.50
2023-03-14T14:49:20.447Z,9.20
2023-03-14T14:51:39.978Z,8.20
2023-03-14T14:54:04.045Z,9.90
2023-03-14T14:56:20.247Z,7.40
2023-03-14T14:58:40.698Z,8.70
2023-03-14T15:01:16.182Z,9.00
2023-03-14T15:03:30.891Z,7.10
2023-03-14T15:05:43.400Z,7.10
2023-03-14T15:07:55.992Z,5.90
2023-03-14T15:10:13.746Z,7.10
2023-03-14T15:12:26.341Z,8.00
2023-03-14T15:14:39.114Z,6.80
2023-03-14T15:16:51.743Z,8.40
2023-03-14T15:19:23.708Z,7.00
2023-03-14T15:21:36.860Z,6.90
2023-03-14T15:23:49.676Z,5.30
2023-03-14T15:26:03.758Z,4.50
2023-03-14T15:28:23.198Z,3.80
2023-03-14T15:30:35.810Z,2.90
2023-03-14T15:32:48.540Z,4.10
2023-03-14T15:35:01.268Z,3.20
2023-03-14T15:37:16.870Z,4.30
2023-03-14T15:39:29.564Z,3.60
2023-03-14T15:41:42.280Z,4.60
2023-03-14T15:43:55.984Z,6.80
2023-03-14T15:46:10.847Z,2.90
2023-03-14T15:48:23.549Z,3.10
2023-03-14T15:50:36.193Z,3.80
2023-03-14T15:52:49.269Z,3.20
2023-03-14T15:55:01.920Z,3.20
2023-03-14T15:57:14.571Z,5.10
2023-03-14T15:59:27.348Z,5.00
2023-03-14T16:01:40.173Z,3.80
2023-03-14T16:03:53.790Z,3.10
2023-03-14T16:06:07.084Z,3.40
2023-03-14T16:08:19.751Z,3.50
2023-03-14T16:10:33.249Z,4.00
2023-03-14T16:12:46.116Z,3.10
2023-03-14T16:14:58.833Z,3.40
2023-03-14T16:17:13.057Z,3.20
2023-03-14T16:19:27.250Z,4.60
2023-03-14T16:21:39.922Z,3.50
2023-03-14T16:23:52.596Z,5.20
2023-03-14T16:26:08.085Z,4.40
2023-03-14T16:28:20.891Z,3.70
2023-03-14T16:30:33.497Z,4.40
2023-03-14T16:32:48.146Z,6.50
2023-03-14T16:35:01.262Z,6.80
2023-03-14T16:37:14.257Z,5.70
2023-03-14T16:39:29.026Z,4.80
2023-03-14T16:41:42.290Z,4.80
2023-03-14T16:43:56.356Z,5.00
2023-03-14T16:46:14.286Z,6.10
2023-03-14T16:48:28.315Z,5.30
2023-03-14T16:50:41.593Z,6.90
2023-03-14T16:52:55.402Z,6.30
2023-03-14T16:55:08.451Z,4.60
2023-03-14T16:57:21.119Z,5.00
2023-03-14T16:59:33.964Z,6.20
2023-03-14T17:01:46.858Z,4.70
2023-03-14T17:03:59.831Z,4.00
2023-03-14T17:06:19.355Z,4.40
2023-03-14T17:08:35.190Z,6.10
2023-03-14T17:10:47.942Z,4.80
2023-03-14T17:13:01.452Z,6.00
2023-03-14T17:15:14.206Z,4.40
2023-03-14T17:17:26.896Z,5.40
2023-03-14T17:19:39.618Z,4.90
2023-03-14T17:21:57.893Z,4.70
2023-03-14T17:24:11.031Z,5.30
2023-03-14T17:26:23.804Z,5.10
2023-03-14T17:28:39.889Z,6.60
2023-03-14T17:31:02.881Z,5.40
2023-03-14T17:33:16.681Z,6.30
2023-03-14T17:35:29.647Z,4.50
2023-03-14T17:37:42.595Z,5.90
2023-03-14T17:39:55.404Z,4.70
2023-03-14T17:42:08.536Z,8.00
2023-03-14T17:44:22.549Z,11.00
2023-03-14T17:46:38.486Z,7.10
2023-03-14T17:48:51.317Z,7.70
2023-03-14T17:51:07.139Z,8.30
2023-03-14T17:53:19.896Z,10.30
2023-03-14T17:55:32.506Z,6.90
2023-03-14T17:57:45.205Z,5.30
2023-03-14T17:59:58.305Z,4.60
2023-03-14T18:02:11.691Z,7.00
2023-03-14T18:04:24.685Z,6.80
2023-03-14T18:06:37.654Z,7.40
2023-03-14T18:08:51.480Z,8.70
2023-03-14T18:11:06.628Z,9.60
2023-03-14T18:13:19.386Z,10.60
2023-03-14T18:15:34.296Z,9.60
2023-03-14T18:17:47.288Z,9.10
2023-03-14T18:20:00.160Z,7.80
2023-03-14T18:22:13.052Z,6.80
2023-03-14T18:24:27.763Z,6.10
2023-03-14T18:26:42.832Z,5.90
2023-03-14T18:28:55.562Z,5.00
2023-03-14T18:31:11.175Z,5.20
2023-03-14T18:33:23.981Z,4.10
2023-03-14T18:35:39.915Z,4.70
2023-03-14T18:37:52.640Z,4.50
2023-03-14T18:40:08.868Z,5.30
2023-03-14T18:42:21.635Z,4.80
2023-03-14T18:44:34.294Z,6.70
2023-03-14T18:46:48.530Z,4.10
2023-03-14T18:49:04.205Z,4.30
2023-03-14T18:51:17.719Z,4.20
2023-03-14T18:53:33.486Z,4.50
2023-03-14T18:55:49.020Z,5.10
2023-03-14T18:58:01.946Z,4.70
2023-03-14T19:00:15.515Z,4.80
2023-03-14T19:02:31.470Z,8.60
2023-03-14T19:04:44.490Z,6.60
2023-03-14T19:06:57.979Z,11.80
2023-03-14T19:09:15.274Z,9.50
2023-03-14T19:11:28.304Z,8.30
2023-03-14T19:13:42.226Z,9.30
2023-03-14T19:15:54.932Z,8.20
2023-03-14T19:18:10.814Z,6.80
2023-03-14T19:20:24.553Z,8.50
2023-03-14T19:22:37.280Z,5.60
2023-03-14T19:24:49.943Z,7.50
2023-03-14T19:27:02.740Z,10.00
2023-03-14T19:29:16.477Z,6.90
2023-03-14T19:31:29.254Z,6.20
2023-03-14T19:33:42.604Z,5.70
2023-03-14T19:35:55.387Z,6.40
2023-03-14T19:38:08.229Z,7.00
2023-03-14T19:40:21.022Z,6.70
2023-03-14T19:42:33.783Z,5.40
2023-03-14T19:44:46.518Z,7.50
2023-03-14T19:46:59.341Z,6.10
2023-03-14T19:49:12.009Z,5.30
2023-03-14T19:51:24.772Z,2.40
2023-03-14T19:53:37.911Z,1.50
2023-03-14T19:55:51.593Z,2.30
2023-03-14T19:58:05.450Z,2.30
2023-03-14T20:00:19.567Z,1.70
2023-03-14T20:02:32.288Z,1.80
2023-03-14T20:04:46.655Z,2.20
2023-03-14T20:06:59.423Z,2.60
2023-03-14T20:09:12.218Z,2.80
2023-03-14T20:11:25.251Z,1.70
2023-03-14T20:13:44.820Z,1.30
2023-03-14T20:15:57.937Z,1.00
2023-03-14T20:18:10.491Z,1.00
2023-03-14T20:20:23.162Z,1.30
2023-03-14T20:22:38.248Z,1.10
2023-03-14T20:24:52.563Z,0.80
2023-03-14T20:27:05.262Z,0.60
2023-03-14T20:29:17.842Z,0.50
2023-03-14T20:31:30.553Z,0.70
2023-03-14T20:33:45.370Z,0.90
2023-03-14T20:35:59.744Z,1.10
2023-03-14T20:38:12.521Z,0.60
2023-03-14T20:40:28.558Z,0.70
2023-03-14T20:42:41.145Z,0.70
2023-03-14T20:44:54.528Z,0.90
2023-03-14T20:47:07.182Z,0.80
2023-03-14T20:49:19.798Z,1.00
2023-03-14T20:51:33.196Z,1.20
2023-03-14T20:53:45.809Z,0.70
2023-03-14T20:55:58.915Z,1.30
2023-03-14T20:58:15.152Z,0.70
2023-03-14T21:00:27.744Z,0.90
2023-03-14T21:02:41.912Z,0.70
2023-03-14T21:04:57.404Z,1.00
2023-03-14T21:07:12.240Z,0.90
2023-03-14T21:09:25.648Z,1.00
2023-03-14T21:11:41.161Z,1.20
2023-03-14T21:13:53.728Z,1.50
2023-03-14T21:16:06.925Z,2.60
2023-03-14T21:18:23.064Z,1.20
2023-03-14T21:20:42.256Z,2.60
2023-03-14T21:22:54.883Z,1.50
2023-03-14T21:25:07.769Z,2.90
2023-03-14T21:27:21.431Z,2.20
2023-03-14T21:29:37.089Z,2.80
2023-03-14T21:31:50.700Z,4.40
2023-03-14T21:34:03.233Z,3.60
2023-03-14T21:36:16.644Z,2.00
2023-03-14T21:38:29.225Z,2.40
2023-03-14T21:40:41.822Z,2.40
2023-03-14T21:42:55.439Z,2.20
2023-03-14T21:45:08.762Z,3.60
2023-03-14T21:47:23.435Z,2.10
2023-03-14T21:49:38.613Z,3.30
2023-03-14T21:51:52.339Z,4.70
2023-03-14T21:54:10.080Z,5.60
2023-03-14T21:56:26.923Z,4.70
2023-03-14T21:58:40.818Z,3.60
2023-03-14T22:00:54.443Z,3.50
2023-03-14T22:03:13.203Z,4.00
2023-03-14T22:05:26.165Z,5.10
2023-03-14T22:07:41.208Z,4.40
2023-03-14T22:09:54.861Z,4.20
2023-03-14T22:12:07.931Z,7.10
2023-03-14T22:14:20.806Z,5.60
2023-03-14T22:16:33.530Z,5.80
2023-03-14T22:18:46.194Z,4.20
2023-03-14T22:20:58.842Z,4.90
2023-03-14T22:23:12.110Z,4.30
2023-03-14T22:25:24.659Z,5.20
2023-03-14T22:27:37.233Z,5.60
2023-03-14T22:29:49.855Z,4.70
2023-03-14T22:32:02.421Z,5.90
2023-03-14T22:34:15.063Z,4.70
2023-03-14T22:36:27.658Z,4.80
2023-03-14T22:38:40.232Z,4.80
2023-03-14T22:40:52.978Z,5.70
2023-03-14T22:43:05.601Z,3.60
2023-03-14T22:45:18.206Z,6.30
2023-03-14T22:47:30.909Z,7.50
2023-03-14T22:49:43.537Z,5.40
2023-03-14T22:51:56.136Z,5.00
2023-03-14T22:54:09.175Z,5.50
2023-03-14T22:56:21.849Z,4.60
2023-03-14T22:58:35.582Z,6.50
2023-03-14T23:00:48.169Z,6.10
2023-03-14T23:03:01.033Z,5.50
2023-03-14T23:05:13.999Z,5.60
2023-03-14T23:07:26.565Z,5.40
2023-03-14T23:09:39.913Z,4.30
2023-03-14T23:11:52.505Z,5.40
2023-03-14T23:14:05.142Z,6.60
2023-03-14T23:16:19.855Z,7.10
2023-03-14T23:18:34.678Z,7.10
2023-03-14T23:20:48.374Z,4.90
2023-03-14T23:23:00.983Z,6.20
2023-03-14T23:25:13.545Z,4.70
2023-03-14T23:27:26.255Z,6.40
2023-03-14T23:29:38.856Z,6.10
2023-03-14T23:31:51.434Z,4.50
2023-03-14T23:34:03.959Z,4.50
2023-03-14T23:36:18.396Z,4.60
2023-03-14T23:38:32.597Z,5.30
2023-03-14T23:40:45.267Z,5.90
2023-03-14T23:42:57.846Z,5.20
2023-03-14T23:45:16.214Z,4.70
2023-03-14T23:47:29.263Z,6.60
2023-03-14T23:49:41.907Z,6.40
2023-03-14T23:51:54.535Z,5.90
2023-03-14T23:54:07.051Z,7.20
2023-03-14T23:56:19.776Z,6.90
2023-03-14T23:58:36.079Z,5.30
